Time;durP1;ratioP1;P1;durP2;ratioP2;P2;SDS_P1;SDS_P2;PMS_P1;PMS_P2;Temp;Humidity;BMP_temperature;BMP_pressure;BME280_temperature;BME280_humidity;BME280_pressure;Samples;Min_cycle;Max_cycle;Signal;HPM_P1;HPM_P2
2023/09/11 00:00:40;;;;;;;;;22.00;22.00;;;;;30.06;31.43;100905.09;5062271;28;45263;-64
2023/09/11 00:03:05;;;;;;;;;25.25;24.00;;;;;30.03;31.41;100908.09;5062099;28;45226;-64
2023/09/11 00:05:30;;;;;;;;;26.00;23.50;;;;;30.02;31.44;100905.53;5061490;28;45326;-64
2023/09/11 00:07:57;;;;;;;;;27.25;24.75;;;;;29.99;31.76;100898.56;5068551;28;45229;-64
2023/09/11 00:10:22;;;;;;;;;26.75;21.50;;;;;29.97;31.17;100901.44;5062175;27;45185;-64
2023/09/11 00:12:48;;;;;;;;;27.75;24.50;;;;;29.94;31.61;100890.03;5060522;28;45548;-64
2023/09/11 00:15:13;;;;;;;;;26.00;24.00;;;;;29.94;32.07;100890.03;5061622;28;46018;-64
2023/09/11 00:17:38;;;;;;;;;25.50;25.00;;;;;29.90;31.91;100891.28;5061792;28;45253;-64
2023/09/11 00:20:10;;;;;;;;;24.75;22.00;;;;;29.89;32.39;100895.03;5061539;28;45356;-64
2023/09/11 00:22:36;;;;;;;;;22.75;22.50;;;;;29.88;31.72;100887.84;5061916;28;45518;-64
2023/09/11 00:25:02;;;;;;;;;23.75;21.75;;;;;29.82;32.11;100879.31;5061472;28;45314;-64
2023/09/11 00:27:27;;;;;;;;;27.00;25.75;;;;;29.81;32.13;100890.28;5061824;28;45224;-64
2023/09/11 00:29:52;;;;;;;;;26.75;25.50;;;;;29.81;32.01;100896.56;5061739;28;45228;-64
2023/09/11 00:32:18;;;;;;;;;27.00;25.50;;;;;29.77;32.25;100892.44;5061903;28;45331;-64
2023/09/11 00:34:44;;;;;;;;;29.25;26.00;;;;;29.73;32.22;100898.28;5061147;28;45453;-64
2023/09/11 00:37:09;;;;;;;;;24.25;23.00;;;;;29.73;32.18;100896.41;5061470;28;45442;-64
2023/09/11 00:39:34;;;;;;;;;25.00;25.00;;;;;29.70;32.24;100891.28;5061359;28;46591;-64
2023/09/11 00:42:00;;;;;;;;;26.25;23.25;;;;;29.65;32.31;100886.28;5061119;28;49603;-64
2023/09/11 00:44:25;;;;;;;;;27.50;27.00;;;;;29.64;32.79;100881.03;5061358;28;46172;-64
2023/09/11 00:46:50;;;;;;;;;20.50;17.00;;;;;29.64;32.67;100886.44;5061327;28;45307;-64
2023/09/11 00:49:18;;;;;;;;;23.25;22.75;;;;;29.60;32.56;100876.91;5059974;28;45387;-64
2023/09/11 00:51:43;;;;;;;;;22.25;22.25;;;;;29.58;32.69;100885.16;5061272;28;45238;-64
2023/09/11 00:54:09;;;;;;;;;23.25;22.25;;;;;29.54;32.55;100877.47;5057944;28;46172;-65
2023/09/11 00:56:35;;;;;;;;;21.25;21.25;;;;;29.51;32.91;100876.75;5061260;28;45828;-64
2023/09/11 00:59:01;;;;;;;;;26.25;24.50;;;;;29.50;33.08;100885.88;5061391;28;45294;-64
2023/09/11 01:01:27;;;;;;;;;26.25;23.75;;;;;29.48;33.32;100879.75;5061340;28;45209;-64
2023/09/11 01:03:53;;;;;;;;;21.25;21.25;;;;;29.43;33.16;100871.19;5058898;28;48373;-64
2023/09/11 01:06:20;;;;;;;;;23.25;22.00;;;;;29.43;33.63;100868.47;5039085;28;45393;-64
2023/09/11 01:08:45;;;;;;;;;20.75;19.75;;;;;29.42;33.18;100874.03;5061329;28;45386;-64
2023/09/11 01:11:11;;;;;;;;;19.00;17.75;;;;;29.39;33.58;100869.78;5053268;28;45232;-64
2023/09/11 01:13:36;;;;;;;;;19.50;19.00;;;;;29.37;33.42;100874.50;5040575;28;45977;-64
2023/09/11 01:16:25;;;;;;;;;23.50;20.50;;;;;29.33;33.54;100871.22;5040818;28;45383;-64
2023/09/11 01:19:04;;;;;;;;;27.00;22.75;;;;;29.32;33.90;100876.72;5040839;28;45280;-64
2023/09/11 01:22:07;;;;;;;;;19.50;19.50;;;;;29.29;33.48;100877.88;5051677;28;45387;-64
2023/09/11 01:24:57;;;;;;;;;23.75;20.75;;;;;29.25;33.69;100876.41;5049875;28;45356;-64
2023/09/11 01:27:41;;;;;;;;;21.25;20.00;;;;;29.23;33.50;100872.16;5063800;28;45273;-64
2023/09/11 01:30:07;;;;;;;;;21.50;19.50;;;;;29.21;33.81;100871.41;5043972;28;45359;-64
2023/09/11 01:32:34;;;;;;;;;20.50;18.75;;;;;29.15;33.82;100862.03;5039241;28;45343;-64
2023/09/11 01:34:59;;;;;;;;;20.00;19.75;;;;;29.14;33.94;100869.28;5039902;28;45268;-64
2023/09/11 01:37:24;;;;;;;;;21.75;21.75;;;;;29.13;33.89;100867.59;5040270;28;48121;-64
2023/09/11 01:39:50;;;;;;;;;22.25;17.75;;;;;29.11;34.15;100876.84;5040400;28;45174;-64
2023/09/11 01:42:20;;;;;;;;;22.50;20.25;;;;;29.08;34.27;100875.28;5039053;28;45265;-64
2023/09/11 01:44:49;;;;;;;;;23.00;20.50;;;;;29.05;34.13;100880.94;5040213;28;46379;-64
2023/09/11 01:47:19;;;;;;;;;18.75;18.75;;;;;29.00;34.11;100873.25;5058328;28;45253;-64
2023/09/11 01:49:47;;;;;;;;;24.75;19.00;;;;;28.99;34.09;100873.38;5060234;28;45475;-64
2023/09/11 01:52:13;;;;;;;;;17.75;15.50;;;;;28.96;33.78;100865.56;5058966;28;45284;-64
2023/09/11 01:54:39;;;;;;;;;19.50;19.25;;;;;28.96;34.64;100881.78;5059959;28;45170;-64
2023/09/11 01:57:05;;;;;;;;;17.50;17.00;;;;;28.94;34.59;100878.34;5059986;28;45247;-64
2023/09/11 01:59:32;;;;;;;;;21.00;18.75;;;;;28.93;34.40;100882.03;5060261;28;45447;-64
2023/09/11 02:01:57;;;;;;;;;19.75;19.50;;;;;28.91;34.41;100884.06;5058948;28;45232;-64
2023/09/11 02:04:22;;;;;;;;;19.00;18.75;;;;;28.87;34.68;100872.66;5059515;28;45824;-64
2023/09/11 02:06:48;;;;;;;;;21.75;19.50;;;;;28.86;34.53;100879.06;5058466;28;45245;-64
2023/09/11 02:09:13;;;;;;;;;20.00;17.25;;;;;28.82;34.57;100870.34;5065682;28;45476;-64
2023/09/11 02:11:38;;;;;;;;;21.00;19.75;;;;;28.79;34.60;100870.66;5059940;28;45429;-64
2023/09/11 02:14:04;;;;;;;;;20.75;19.25;;;;;28.78;34.92;100882.44;5059761;28;45306;-64
2023/09/11 02:16:29;;;;;;;;;20.50;18.50;;;;;28.74;34.47;100881.00;5060133;28;45302;-64
2023/09/11 02:18:54;;;;;;;;;26.00;22.25;;;;;28.71;34.87;100881.28;5060225;28;45319;-64
2023/09/11 02:21:20;;;;;;;;;23.50;21.25;;;;;28.69;34.76;100880.53;5059673;28;45517;-64
2023/09/11 02:23:46;;;;;;;;;21.50;20.75;;;;;28.64;35.10;100867.44;5059553;28;46653;-64
2023/09/11 02:26:12;;;;;;;;;23.25;21.00;;;;;28.63;34.92;100876.53;5059587;28;45407;-64
2023/09/11 02:28:37;;;;;;;;;19.25;18.25;;;;;28.61;34.98;100875.78;5059907;28;45474;-64
2023/09/11 02:31:02;;;;;;;;;21.75;21.25;;;;;28.60;34.53;100882.19;5059880;28;45262;-64
2023/09/11 02:33:28;;;;;;;;;17.75;17.75;;;;;28.53;35.02;100870.22;5059820;28;46399;-64
2023/09/11 02:35:57;;;;;;;;;20.75;18.50;;;;;28.53;35.18;100873.78;5059778;28;45245;-64
2023/09/11 02:38:23;;;;;;;;;25.50;21.75;;;;;28.53;35.25;100881.03;5059862;28;45250;-64
2023/09/11 02:40:49;;;;;;;;;18.75;18.00;;;;;28.51;35.08;100872.19;5059714;28;45311;-64
2023/09/11 02:43:14;;;;;;;;;20.00;18.25;;;;;28.48;35.13;100869.78;5058220;28;47040;-64
2023/09/11 02:45:44;;;;;;;;;18.25;17.00;;;;;28.47;34.92;100876.19;5059687;28;45391;-64
2023/09/11 02:48:10;;;;;;;;;17.75;16.50;;;;;28.44;35.17;100873.72;5058366;28;45380;-64
2023/09/11 02:50:35;;;;;;;;;18.25;18.00;;;;;28.42;34.94;100870.31;5058111;28;45503;-64
2023/09/11 02:53:01;;;;;;;;;20.25;20.25;;;;;28.38;35.17;100854.38;5059365;28;45305;-64
2023/09/11 02:55:26;;;;;;;;;24.50;22.75;;;;;28.37;35.50;100863.47;5059323;28;45157;-64
2023/09/11 02:57:51;;;;;;;;;20.75;19.50;;;;;28.34;34.96;100858.34;5059514;28;45241;-64
2023/09/11 03:00:17;;;;;;;;;19.75;18.75;;;;;28.32;35.54;100857.59;5059545;28;45253;-64
2023/09/11 03:02:42;;;;;;;;;19.00;19.00;;;;;28.29;35.43;100857.00;5059271;28;45229;-64
2023/09/11 03:05:08;;;;;;;;;22.25;21.00;;;;;28.28;35.79;100855.34;5059055;28;45793;-64
2023/09/11 03:07:33;;;;;;;;;18.50;18.00;;;;;28.26;35.21;100852.75;5062682;28;45226;-64
2023/09/11 03:09:58;;;;;;;;;22.25;21.00;;;;;28.22;35.65;100854.00;5062936;27;45372;-64
2023/09/11 03:12:23;;;;;;;;;18.75;18.00;;;;;28.20;35.62;100847.88;5059170;28;46057;-64
2023/09/11 03:14:52;;;;;;;;;25.50;20.50;;;;;28.18;35.67;100844.47;5059373;28;45358;-64
2023/09/11 03:17:17;;;;;;;;;22.00;22.00;;;;;28.15;35.27;100839.31;5061255;28;45524;-64
2023/09/11 03:19:44;;;;;;;;;20.25;20.00;;;;;28.12;35.73;100840.44;5062588;28;45310;-64
2023/09/11 03:22:09;;;;;;;;;21.25;20.50;;;;;28.11;35.97;100837.88;5062428;28;46073;-65
2023/09/11 03:24:35;;;;;;;;;19.00;15.75;;;;;28.06;35.51;100832.88;5062858;28;45279;-64
2023/09/11 03:27:00;;;;;;;;;21.50;19.25;;;;;28.04;35.86;100832.16;5078124;28;45291;-64
2023/09/11 03:29:25;;;;;;;;;21.00;21.00;;;;;28.02;35.95;100844.91;5078408;28;45642;-64
2023/09/11 03:31:50;;;;;;;;;23.00;21.75;;;;;27.96;35.78;100835.50;5060638;28;45508;-64
2023/09/11 03:34:16;;;;;;;;;17.25;17.25;;;;;27.96;36.11;100834.63;5061133;28;50688;-64
2023/09/11 03:36:41;;;;;;;;;15.75;15.50;;;;;27.90;35.81;100825.25;5061092;28;45273;-64
2023/09/11 03:39:07;;;;;;;;;17.25;17.25;;;;;27.89;35.72;100824.38;5062506;28;49915;-64
2023/09/11 03:41:33;;;;;;;;;21.50;18.75;;;;;27.87;35.76;100825.50;5060918;28;47042;-64
2023/09/11 03:43:58;;;;;;;;;17.75;17.75;;;;;27.82;36.05;100815.06;5062355;28;45333;-64
2023/09/11 03:46:24;;;;;;;;;17.25;16.25;;;;;27.80;35.74;100814.38;5060883;28;46162;-64
2023/09/11 03:48:49;;;;;;;;;16.50;15.75;;;;;27.79;36.25;100818.06;5062402;28;45271;-64
2023/09/11 03:51:14;;;;;;;;;23.75;19.25;;;;;27.79;36.02;100814.50;5061907;28;45420;-64
2023/09/11 03:53:45;;;;;;;;;19.50;18.50;;;;;27.76;36.00;100814.75;5062122;28;45367;-64
2023/09/11 03:56:12;;;;;;;;;21.25;19.25;;;;;27.73;36.17;100805.09;5062174;28;45415;-64
2023/09/11 03:58:38;;;;;;;;;20.75;20.25;;;;;27.72;36.02;100809.63;5062303;28;45278;-65
2023/09/11 04:01:04;;;;;;;;;17.75;16.50;;;;;27.69;36.25;100804.50;5060137;28;47008;-64
2023/09/11 04:03:29;;;;;;;;;26.25;21.25;;;;;27.68;36.19;100799.22;5062234;28;45671;-64
2023/09/11 04:05:54;;;;;;;;;23.25;19.50;;;;;27.66;36.26;100806.59;5061573;28;45438;-64
2023/09/11 04:08:20;;;;;;;;;18.00;15.00;;;;;27.66;36.11;100812.00;5068761;28;47762;-64
2023/09/11 04:10:45;;;;;;;;;17.75;17.00;;;;;27.64;36.38;100808.59;5061344;28;56413;-64
2023/09/11 04:13:10;;;;;;;;;20.00;18.00;;;;;27.61;36.16;100801.59;5061947;28;45319;-64
2023/09/11 04:15:36;;;;;;;;;23.00;20.00;;;;;27.59;36.63;100805.44;5061857;28;45310;-64
2023/09/11 04:18:01;;;;;;;;;23.25;19.25;;;;;27.53;36.24;100796.00;5060590;28;45532;-64
2023/09/11 04:20:32;;;;;;;;;16.50;14.75;;;;;27.55;36.89;100794.03;5061514;28;45407;-64
2023/09/11 04:22:59;;;;;;;;;24.00;19.25;;;;;27.46;36.59;100792.97;5061919;28;45168;-64
2023/09/11 04:25:24;;;;;;;;;20.50;18.75;;;;;27.50;36.09;100797.13;5061498;28;45500;-64
2023/09/11 04:27:49;;;;;;;;;19.75;18.00;;;;;27.44;36.60;100786.00;5060128;28;45371;-64
2023/09/11 04:30:17;;;;;;;;;21.50;18.00;;;;;27.43;36.53;100782.44;5060051;28;52156;-64
2023/09/11 04:32:43;;;;;;;;;23.50;20.00;;;;;27.44;36.67;100791.41;5061853;28;45428;-64
2023/09/11 04:35:08;;;;;;;;;21.50;20.75;;;;;27.38;36.46;100782.81;5061044;28;45193;-65
2023/09/11 04:37:34;;;;;;;;;22.75;19.75;;;;;27.37;36.32;100775.69;5061107;28;54649;-64
2023/09/11 04:39:59;;;;;;;;;22.00;19.00;;;;;27.37;36.68;100781.09;5061114;28;46510;-64
2023/09/11 04:42:24;;;;;;;;;18.25;17.75;;;;;27.35;36.57;100783.06;5061682;28;45312;-64
2023/09/11 04:44:50;;;;;;;;;19.75;17.50;;;;;27.34;36.49;100789.44;5061262;28;45369;-64
2023/09/11 04:47:16;;;;;;;;;19.75;18.00;;;;;27.33;36.56;100793.13;5076600;28;45463;-65
2023/09/11 04:49:41;;;;;;;;;22.25;21.25;;;;;27.30;36.66;100789.84;5060787;28;45310;-64
2023/09/11 04:52:06;;;;;;;;;18.00;17.75;;;;;27.29;36.57;100797.06;5061303;28;45208;-65
2023/09/11 04:54:32;;;;;;;;;20.25;20.25;;;;;27.28;37.07;100799.91;5060999;28;45240;-64
2023/09/11 04:56:57;;;;;;;;;20.50;19.00;;;;;27.24;36.81;100786.69;5060942;28;51857;-64
2023/09/11 04:59:22;;;;;;;;;17.75;17.75;;;;;27.24;37.36;100792.06;5060479;28;58247;-66
2023/09/11 05:01:48;;;;;;;;;20.25;19.00;;;;;27.20;36.42;100782.50;5061386;28;45275;-64
2023/09/11 05:04:13;;;;;;;;;23.00;21.50;;;;;27.18;36.91;100779.09;5061037;28;45224;-64
2023/09/11 05:06:38;;;;;;;;;21.00;20.50;;;;;27.17;36.70;100781.91;5060673;28;45435;-64
2023/09/11 05:09:04;;;;;;;;;19.25;19.00;;;;;27.15;37.38;100782.03;5067643;28;45573;-64
2023/09/11 05:11:29;;;;;;;;;23.00;19.75;;;;;27.11;36.82;100782.41;5061006;28;45236;-64
2023/09/11 05:13:54;;;;;;;;;22.00;20.00;;;;;27.12;37.10;100774.22;5060853;28;45245;-64
2023/09/11 05:16:20;;;;;;;;;20.75;18.75;;;;;27.08;37.37;100775.44;5060496;28;56345;-64
2023/09/11 05:18:45;;;;;;;;;21.75;20.25;;;;;27.07;37.20;100784.53;5076160;28;46390;-64
2023/09/11 05:21:11;;;;;;;;;21.50;19.75;;;;;27.04;37.14;100780.25;5058891;28;46421;-65
2023/09/11 05:23:36;;;;;;;;;18.25;18.25;;;;;27.05;37.05;100790.03;5061028;28;45283;-64
2023/09/11 05:26:03;;;;;;;;;22.00;20.75;;;;;27.01;37.19;100785.88;5060494;28;45321;-65
2023/09/11 05:28:29;;;;;;;;;22.00;19.50;;;;;27.00;37.18;100796.81;5060775;28;45315;-65
2023/09/11 05:30:54;;;;;;;;;20.25;18.00;;;;;26.97;37.53;100789.84;5060721;28;45560;-65
2023/09/11 05:33:19;;;;;;;;;21.50;21.50;;;;;26.94;37.82;100795.47;5060656;28;45434;-65
2023/09/11 05:35:45;;;;;;;;;22.00;20.00;;;;;26.96;37.51;100798.06;5060183;28;49448;-65
2023/09/11 05:38:11;;;;;;;;;17.00;15.25;;;;;26.90;37.53;100796.72;5060430;28;45303;-65
2023/09/11 05:40:36;;;;;;;;;21.50;21.00;;;;;26.90;37.71;100811.03;5059659;28;45405;-65
2023/09/11 05:43:01;;;;;;;;;19.00;19.00;;;;;26.89;37.28;100801.25;5076189;28;45414;-65
2023/09/11 05:45:27;;;;;;;;;23.00;18.00;;;;;26.88;37.55;100799.53;5060405;28;45227;-65
2023/09/11 05:47:52;;;;;;;;;16.75;15.75;;;;;26.85;37.28;100791.69;5060429;28;45312;-65
2023/09/11 05:50:17;;;;;;;;;21.75;19.00;;;;;26.86;37.35;100796.09;5060176;28;45248;-65
2023/09/11 05:52:43;;;;;;;;;20.00;19.50;;;;;26.87;37.78;100796.97;5058771;28;45289;-64
2023/09/11 05:55:08;;;;;;;;;19.75;17.75;;;;;26.84;37.53;100792.69;5058470;28;48434;-65
2023/09/11 05:57:34;;;;;;;;;18.00;16.50;;;;;26.83;37.22;100793.69;5060132;28;46128;-65
2023/09/11 05:59:59;;;;;;;;;19.00;16.75;;;;;26.79;37.17;100786.81;5060162;28;45328;-65
2023/09/11 06:02:24;;;;;;;;;18.00;15.25;;;;;26.82;37.61;100800.03;5060310;28;45413;-64
2023/09/11 06:04:49;;;;;;;;;16.25;15.50;;;;;26.78;37.74;100801.28;5059927;28;45240;-64
2023/09/11 06:07:16;;;;;;;;;19.25;18.00;;;;;26.78;37.33;100812.06;5060526;28;46104;-66
2023/09/11 06:09:42;;;;;;;;;17.50;15.25;;;;;26.80;37.45;100810.09;5066051;27;45318;-65
2023/09/11 06:12:07;;;;;;;;;20.75;17.25;;;;;26.78;37.65;100812.06;5059868;28;45428;-65
2023/09/11 06:14:36;;;;;;;;;18.50;15.25;;;;;26.80;37.55;100822.72;5060126;28;45299;-65
2023/09/11 06:17:03;;;;;;;;;18.50;17.50;;;;;26.77;37.81;100813.88;5059742;28;45978;-65
2023/09/11 06:19:29;;;;;;;;;18.50;17.75;;;;;26.79;37.92;100816.44;5058339;28;45383;-64
2023/09/11 06:21:54;;;;;;;;;17.00;17.00;;;;;26.74;37.21;100814.16;5059809;28;45272;-65
2023/09/11 06:24:19;;;;;;;;;18.75;18.75;;;;;26.75;37.49;100815.00;5059855;28;48562;-66
2023/09/11 06:26:44;;;;;;;;;17.25;17.25;;;;;26.77;37.91;100813.03;5059209;28;53649;-65
2023/09/11 06:29:10;;;;;;;;;20.25;17.50;;;;;26.76;37.81;100816.72;5059796;28;47726;-65
2023/09/11 06:31:35;;;;;;;;;19.00;17.75;;;;;26.74;38.04;100810.59;5059853;28;45398;-65
2023/09/11 06:34:01;;;;;;;;;18.75;16.00;;;;;26.76;37.72;100817.56;5058530;28;45291;-65
2023/09/11 06:36:26;;;;;;;;;17.25;15.00;;;;;26.77;37.39;100818.44;5059440;28;45875;-65
2023/09/11 06:38:51;;;;;;;;;22.25;17.00;;;;;26.74;37.35;100799.81;5058416;28;45334;-65
2023/09/11 06:41:17;;;;;;;;;18.25;16.25;;;;;26.76;37.54;100814.03;5059721;28;45383;-65
2023/09/11 06:43:42;;;;;;;;;17.50;16.00;;;;;26.74;37.68;100816.84;5059379;28;55053;-65
2023/09/11 06:46:08;;;;;;;;;16.75;16.75;;;;;26.75;37.43;100817.69;5059508;28;46204;-65
2023/09/11 06:48:33;;;;;;;;;18.25;16.50;;;;;26.75;37.86;100818.56;5059744;28;45371;-65
2023/09/11 06:50:58;;;;;;;;;18.00;18.00;;;;;26.76;38.16;100819.41;5059497;28;45464;-65
2023/09/11 06:53:24;;;;;;;;;17.00;17.00;;;;;26.79;37.58;100818.31;5061837;28;45285;-65
2023/09/11 06:55:49;;;;;;;;;19.50;18.00;;;;;26.79;37.97;100815.59;5062855;28;45427;-65
2023/09/11 06:58:15;;;;;;;;;19.25;15.50;;;;;26.79;38.10;100808.38;5078834;28;45929;-65
2023/09/11 07:00:40;;;;;;;;;18.25;15.75;;;;;26.78;37.66;100812.06;5061796;28;45398;-65
2023/09/11 07:03:06;;;;;;;;;17.50;16.50;;;;;26.77;37.97;100811.19;5063163;28;45241;-65
2023/09/11 07:05:32;;;;;;;;;31.25;26.50;;;;;26.77;37.73;100816.59;5061215;28;47417;-65
2023/09/11 07:07:57;;;;;;;;;21.75;20.00;;;;;26.72;37.81;100807.16;5069680;28;45329;-65
2023/09/11 07:10:24;;;;;;;;;20.25;16.75;;;;;26.74;37.71;100816.84;5062973;27;45232;-65
2023/09/11 07:12:49;;;;;;;;;20.50;20.00;;;;;26.75;38.35;100815.00;5061663;28;45340;-65
2023/09/11 07:15:16;;;;;;;;;17.75;16.75;;;;;26.75;37.89;100820.38;5062480;28;45826;-65
2023/09/11 07:17:42;;;;;;;;;95.33;90.67;;;;;26.74;38.25;100813.28;5062928;28;45398;-65
2023/09/11 07:20:09;;;;;;;;;19.00;17.75;;;;;26.77;37.93;100826.53;5062738;28;45568;-64
2023/09/11 07:22:34;;;;;;;;;21.75;19.00;;;;;26.76;38.39;100820.25;5062854;28;45504;-65
2023/09/11 07:25:00;;;;;;;;;16.75;15.50;;;;;26.77;38.47;100815.75;5062416;28;46139;-65
2023/09/11 07:27:33;;;;;;;;;19.75;17.75;;;;;26.77;37.96;100807.66;5062790;28;45221;-64
2023/09/11 07:29:59;;;;;;;;;16.75;16.75;;;;;26.82;38.29;100807.25;5062832;28;45351;-64
2023/09/11 07:32:25;;;;;;;;;14.50;13.25;;;;;26.81;38.22;100805.56;5062515;28;45380;-64
2023/09/11 07:34:50;;;;;;;;;19.00;16.00;;;;;26.84;37.85;100808.88;5061931;28;46101;-65
2023/09/11 07:37:16;;;;;;;;;18.25;16.25;;;;;26.87;38.65;100808.59;5060639;28;58574;-65
2023/09/11 07:39:41;;;;;;;;;16.75;15.75;;;;;26.88;38.46;100807.63;5062607;28;45224;-65
2023/09/11 07:42:07;;;;;;;;;18.00;16.00;;;;;26.89;38.24;100809.34;5062369;28;45563;-65
2023/09/11 07:44:32;;;;;;;;;20.50;19.00;;;;;26.99;38.51;100817.50;5062298;28;45285;-64
2023/09/11 07:46:57;;;;;;;;;13.50;10.50;;;;;27.04;37.88;100822.53;5060923;28;45253;-66
2023/09/11 07:49:23;;;;;;;;;16.75;14.50;;;;;27.08;38.02;100829.38;5061044;28;45217;-65
2023/09/11 07:51:48;;;;;;;;;17.75;17.25;;;;;27.12;38.38;100828.16;5077973;28;45241;-65
2023/09/11 07:54:13;;;;;;;;;17.75;14.25;;;;;27.15;38.62;100833.28;5062116;28;47902;-65
2023/09/11 07:56:39;;;;;;;;;21.00;17.50;;;;;27.20;38.52;100831.06;5061686;28;55213;-64
2023/09/11 07:59:04;;;;;;;;;19.00;16.75;;;;;27.29;37.93;100842.06;5062278;28;45433;-64
2023/09/11 08:01:30;;;;;;;;;15.25;12.75;;;;;27.35;38.35;100847.81;5060921;28;45537;-64
2023/09/11 08:03:55;;;;;;;;;19.00;17.00;;;;;27.42;38.47;100845.47;5061578;28;46089;-65
2023/09/11 08:06:21;;;;;;;;;16.50;15.00;;;;;27.48;37.83;100844.09;5061584;28;45377;-65
2023/09/11 08:08:46;;;;;;;;;19.50;18.25;;;;;27.55;38.00;100842.59;5068831;28;45739;-66
2023/09/11 08:11:12;;;;;;;;;15.25;13.50;;;;;27.63;38.18;100841.94;5061593;28;55489;-64
2023/09/11 08:13:38;;;;;;;;;15.50;14.25;;;;;27.68;38.07;100839.72;5061722;28;45383;-64
2023/09/11 08:16:03;;;;;;;;;15.50;14.00;;;;;27.73;38.69;100835.66;5062057;28;45161;-63
2023/09/11 08:18:28;;;;;;;;;18.50;15.25;;;;;27.82;38.14;100836.66;5061763;28;45281;-63
2023/09/11 08:20:54;;;;;;;;;17.50;15.00;;;;;27.88;37.77;100829.91;5061327;28;53874;-63
2023/09/11 08:23:19;;;;;;;;;15.25;15.25;;;;;27.94;38.20;100832.06;5061612;28;53707;-63
2023/09/11 08:25:45;;;;;;;;;17.25;15.50;;;;;28.03;37.88;100838.53;5061198;28;45372;-63
2023/09/11 08:28:10;;;;;;;;;17.50;15.75;;;;;28.07;38.09;100837.28;5061751;28;45310;-63
2023/09/11 08:30:36;;;;;;;;;14.50;11.25;;;;;28.13;37.71;100835.91;5061821;28;45541;-63
2023/09/11 08:33:03;;;;;;;;;14.75;14.75;;;;;28.19;38.02;100840.78;5060185;28;47468;-63
2023/09/11 08:35:28;;;;;;;;;17.75;16.00;;;;;28.27;37.69;100840.09;5061392;28;45392;-63
2023/09/11 08:37:53;;;;;;;;;15.75;15.75;;;;;28.32;37.68;100845.97;5061656;28;45493;-65
2023/09/11 08:40:20;;;;;;;;;18.00;14.75;;;;;28.37;37.54;100855.34;5059911;28;52782;-63
2023/09/11 08:42:46;;;;;;;;;13.75;13.75;;;;;28.42;37.59;100859.53;5061344;28;45338;-63
2023/09/11 08:45:11;;;;;;;;;15.75;15.50;;;;;28.44;37.68;100866.50;5061390;28;45417;-63
2023/09/11 08:47:38;;;;;;;;;11.25;10.50;;;;;28.51;37.94;100872.19;5061514;28;45390;-63
2023/09/11 08:50:05;;;;;;;;;16.25;16.25;;;;;28.58;37.62;100869.81;5061556;28;45381;-64
2023/09/11 08:52:34;;;;;;;;;15.00;15.00;;;;;28.63;37.60;100857.59;5061276;28;45886;-63
2023/09/11 08:55:03;;;;;;;;;15.25;12.25;;;;;28.68;37.53;100862.66;5060823;28;45576;-64
2023/09/11 08:57:33;;;;;;;;;14.50;14.50;;;;;28.74;37.46;100862.06;5061280;28;45282;-64
2023/09/11 09:00:04;;;;;;;;;15.50;13.75;;;;;28.79;37.67;100857.13;5061139;28;45231;-64
2023/09/11 09:02:32;;;;;;;;;10.75;10.75;;;;;28.88;37.33;100859.97;5060824;28;46349;-63
2023/09/11 09:04:58;;;;;;;;;18.75;16.00;;;;;28.94;37.63;100868.38;5061111;28;45302;-63
2023/09/11 09:07:24;;;;;;;;;15.75;14.75;;;;;29.00;37.58;100865.13;5040866;28;45763;-64
2023/09/11 09:09:49;;;;;;;;;14.50;14.25;;;;;29.06;37.41;100861.03;5023011;28;45301;-63
2023/09/11 09:12:15;;;;;;;;;18.75;17.25;;;;;29.14;37.40;100860.31;5040788;28;46446;-63
2023/09/11 09:14:40;;;;;;;;;14.75;13.00;;;;;29.17;37.54;100862.75;5039740;28;45311;-63
2023/09/11 09:17:06;;;;;;;;;16.00;14.50;;;;;29.26;37.46;100858.31;5040887;28;45447;-63
2023/09/11 09:19:33;;;;;;;;;15.00;13.00;;;;;29.31;37.38;100848.00;5040683;28;45369;-63
2023/09/11 09:22:01;;;;;;;;;16.25;14.50;;;;;29.42;37.35;100842.44;5040060;28;45290;-63
2023/09/11 09:24:26;;;;;;;;;14.75;14.75;;;;;29.48;37.48;100847.28;5040745;28;45371;-63
2023/09/11 09:26:59;;;;;;;;;15.50;14.00;;;;;29.57;37.16;100852.81;5038986;28;47380;-63
2023/09/11 09:29:25;;;;;;;;;15.50;15.50;;;;;29.64;37.27;100853.97;5040762;28;45400;-63
2023/09/11 09:31:51;;;;;;;;;17.00;16.00;;;;;29.73;37.12;100847.66;5040322;28;46022;-66
2023/09/11 09:34:17;;;;;;;;;18.50;16.00;;;;;29.80;37.47;100846.09;5021933;28;45223;-65
2023/09/11 09:36:52;;;;;;;;;18.75;13.00;;;;;29.91;36.70;100863.22;5040576;28;45222;-65
2023/09/11 09:39:18;;;;;;;;;17.50;14.00;;;;;29.99;37.18;100882.31;5040533;28;45512;-63
2023/09/11 09:41:57;;;;;;;;;15.50;14.75;;;;;30.10;36.79;100924.63;5040283;28;45499;-65
2023/09/11 09:44:45;;;;;;;;;13.50;13.50;;;;;30.15;36.85;100947.59;5040366;28;45433;-66
2023/09/11 09:47:13;;;;;;;;;16.25;15.50;;;;;30.19;37.27;100939.16;5040267;28;45262;-66
2023/09/11 09:49:50;;;;;;;;;15.00;14.50;;;;;30.20;37.11;100922.78;5039979;28;45451;-63
2023/09/11 09:52:18;;;;;;;;;15.75;14.75;;;;;30.20;36.80;100913.78;5040122;28;46203;-64
2023/09/11 09:54:50;;;;;;;;;17.25;16.25;;;;;30.19;36.71;100914.75;5039807;28;45449;-63
2023/09/11 09:57:17;;;;;;;;;17.75;16.00;;;;;30.17;36.65;100914.06;5022103;28;45413;-64
2023/09/11 09:59:50;;;;;;;;;16.00;15.75;;;;;30.15;36.69;100912.38;5022249;28;45900;-64
2023/09/11 10:02:32;;;;;;;;;15.50;15.50;;;;;30.14;36.46;100915.22;5039933;28;46261;-64
2023/09/11 10:05:01;;;;;;;;;18.00;17.50;;;;;30.14;36.40;100912.50;5039835;28;45293;-64
2023/09/11 10:07:38;;;;;;;;;16.25;14.75;;;;;30.11;36.43;100907.38;5022650;28;45363;-64
2023/09/11 10:10:22;;;;;;;;;17.00;16.50;;;;;30.14;36.43;100916.06;5039683;28;45334;-64
2023/09/11 10:13:05;;;;;;;;;17.75;16.50;;;;;30.15;36.74;100912.38;5039875;28;45416;-63
2023/09/11 10:15:32;;;;;;;;;20.75;17.50;;;;;30.17;36.98;100911.38;5021689;28;45438;-64
2023/09/11 10:17:57;;;;;;;;;18.50;17.75;;;;;30.18;36.72;100908.50;5040264;28;45439;-64
2023/09/11 10:20:24;;;;;;;;;18.00;16.50;;;;;30.19;36.82;100901.22;5039435;28;45448;-65
2023/09/11 10:22:55;;;;;;;;;17.25;16.50;;;;;30.21;36.63;100904.66;5039789;28;45273;-65
2023/09/11 10:25:27;;;;;;;;;15.75;15.75;;;;;30.20;36.98;100900.22;5039169;28;45540;-65
2023/09/11 10:28:28;;;;;;;;;20.75;18.00;;;;;30.23;36.48;100898.06;5022061;28;45344;-65
2023/09/11 10:31:22;;;;;;;;;17.00;16.50;;;;;30.24;36.74;100899.78;5039724;28;45717;-65
2023/09/11 10:33:53;;;;;;;;;14.50;14.50;;;;;30.21;36.59;100881.09;5037630;28;48276;-65
2023/09/11 10:36:22;;;;;;;;;12.75;12.25;;;;;30.24;36.59;100888.94;5039375;28;45347;-65
2023/09/11 10:38:50;;;;;;;;;14.75;14.50;;;;;30.27;36.67;100880.50;5039797;28;45251;-66
2023/09/11 10:41:16;;;;;;;;;13.00;13.00;;;;;30.31;37.10;100875.66;5039626;28;45332;-65
2023/09/11 10:43:45;;;;;;;;;15.50;15.00;;;;;30.38;36.72;100879.50;5039518;28;46148;-66
2023/09/11 10:46:22;;;;;;;;;21.00;18.00;;;;;30.47;36.94;100875.03;5039667;28;45308;-66
2023/09/11 10:48:51;;;;;;;;;15.75;14.25;;;;;30.51;36.67;100872.91;5039644;28;45302;-65
2023/09/11 10:51:16;;;;;;;;;15.75;15.75;;;;;30.63;36.61;100879.88;5039275;28;45253;-65
2023/09/11 10:53:42;;;;;;;;;18.50;15.75;;;;;30.74;36.62;100884.22;5039231;28;46200;-66
2023/09/11 10:56:09;;;;;;;;;12.75;12.75;;;;;30.84;36.45;100892.31;5039209;28;45307;-66
2023/09/11 10:58:34;;;;;;;;;13.75;13.75;;;;;30.92;36.91;100887.84;5039539;28;45410;-64
2023/09/11 11:01:04;;;;;;;;;15.00;13.25;;;;;31.04;36.99;100885.75;5039155;28;45624;-63
2023/09/11 11:03:31;;;;;;;;;13.75;13.00;;;;;31.16;36.90;100872.00;5039345;28;45234;-64
2023/09/11 11:06:01;;;;;;;;;16.00;16.00;;;;;31.29;36.83;100875.19;5046936;28;45486;-64
2023/09/11 11:08:32;;;;;;;;;17.25;15.25;;;;;31.54;36.51;100873.56;5066357;28;45442;-64